Northolt, United Kingdom

7:50 PM GMT on March 05, 2015 (GMT +0000)
Ruislip Manor | Change Station
CLOSE
Current Station
Personal Weather Station
Location: United Kingdom,
Elevation: 131 ft
Nearby Weather Stations

Elev 131 ft 51.57 °N, 0.41 °W | Updated 35 seconds ago

Mostly Cloudy
Mostly Cloudy
46.9 °F
Feels Like 47 °F
N
0.7
Wind Variable Wind from NW
Gusts 1.6 mph

Today
High -- | Low -- °F
--% Chance of Precip.
Yesterday
High -- | Low -- °F
Precip. -- in
6:39 AM 5:48 PM
Full, 100% visible
Pressure 30.66 in
Visibility 6.2 miles
Clouds Mostly Cloudy 3900 ft
Windchill 47 °F
Dew Point 33 °F
Humidity 58%
Rainfall in
Snow Depth Not available.
UV 0 out of 12
Pollen Not available.
Air Quality Not available.
Flu Activity Not available.
METAR EGLL 051920Z 27009KT 9999 BKN039 08/02 Q1038 NOSIG

More Conditions Fewer Conditions

Pressure 30.66 in
Visibility 6.2 miles
Clouds Mostly Cloudy 3900 ft
Windchill 47 °F
Dew Point 33 °F
Humidity 58%
Rainfall in
Snow Depth Not available.
UV 0 out of 12
Pollen Not available.
Air Quality Not available.
Flu Activity Not available.
METAR EGLL 051920Z 27009KT 9999 BKN039 08/02 Q1038 NOSIG

More Conditions Fewer Conditions

10-Day Weather Forecast

Almanac

Astronomy

Mar. 05, 2015 Rise Set
Actual Time
Civil Twilight
Nautical Twilight
Astronomical Twilight
Moon
Length of Visible Light
Length of Day
Tomorrow will be .
, % of the Moon is Illuminated

Today's Extremes

Country Highs Country Lows

Community

WunderPhotos

Upload Photos

1,802,929 photos uploaded!

WunderBlogs® & News

Nearby

Air Quality

  Air Quality AQ Index Pollutant
Not available.

Snow Depth

Station Depth Elevation

Earthquake Activity

City Distance Mag. Time & Date
Minimum magnitude displayed is 2.5.

Coastal Water Temperatures

Place Temperature

Nearby Weather Stations